Portada
METAR-TAF:

METAR-TAF

Aeroports :

Johor Bahru, Malàisia

latitud: 01-38N, longitud: 103-40E, altitud: 37 m

Observació

L'informe es va fer fa 48 minuts, a les 06:00 UTC
Vent 4 kt amb direcció variable
Temperatura 31°C
Humitat 71%
Pressió 1009 hPa
Visibilitat 10 km o més
Escasses núvols a una alçada de 1800 ft

METAR: WMKJ 220600Z VRB04KT 9999 FEW018 31/25 Q1009

Hora: 14:48 (06:48 UTC)

Pronòstic

L'informe es va fer fa 1 hora i 48 minuts, a les 05:00 UTC
Pronòstic vàlid del 22 a les 06 UTC al 23 a les 06 UTC
Vent 5 kt del Oest/Sud-Oest
Visibilitat 10 km o més
Escasses núvols a una alçada de 1800 ft
Probabilitat 30% :
Temporalment
l' 22 a les 22 UTC al 23 a les 02 UTC
Visibilitat: 4000 m
Escasses núvols a una alçada de 1000 ft
Escasses núvols a una alçada de 1600 ft, Cumulonimbus.
tempesta, pluja

TAF: WMKJ 220500Z 2206/2306 24005KT 9999 FEW018 PROB30 TEMPO 2222/2302 4000 TSRA FEW010 FEW016CB

Observacions i pronòstics meteorològics de més de 4000 aeroports (METAR i TAF).

Les estacions disponibles són els punts grocs i vermells al mapa.

Posi el ratolí al punt desitjat per veure el nom de l'estació.

Feu clic per veure les observacions i els pronòstics meteorològics.

Per canviar el mapa: feu clic els botons verds amb una creu de color negre per apropar; al botó verd amb un guió per allunyar la imatge; o en les fletxes verdes per a mapes adjacents.


METAR-TAF: